Time;durP1;ratioP1;P1;durP2;ratioP2;P2;SDS_P1;SDS_P2;PMS_P1;PMS_P2;Temp;Humidity;BMP_temperature;BMP_pressure;BME280_temperature;BME280_humidity;BME280_pressure;Samples;Min_cycle;Max_cycle;Signal;HPM_P1;HPM_P2
2023/12/19 00:01:43;;;;;;;5.43;2.13;;;7.40;39.60;;;;;;5051906;28;20442;-47
2023/12/19 00:04:09;;;;;;;5.18;2.70;;;7.40;39.60;;;;;;5051950;28;20411;-53
2023/12/19 00:06:35;;;;;;;4.10;2.20;;;7.40;39.70;;;;;;5052057;28;20185;-53
2023/12/19 00:09:01;;;;;;;1.13;0.73;;;7.30;39.90;;;;;;5051676;28;20778;-46
2023/12/19 00:11:26;;;;;;;1.43;1.33;;;7.30;39.80;;;;;;5051957;28;20487;-55
2023/12/19 00:13:52;;;;;;;1.00;0.90;;;7.30;39.80;;;;;;5052060;28;20411;-49
2023/12/19 00:16:18;;;;;;;1.17;0.93;;;7.30;39.80;;;;;;5051853;28;20857;-52
2023/12/19 00:18:44;;;;;;;1.73;1.63;;;7.30;40.00;;;;;;5051676;28;20428;-50
2023/12/19 00:21:10;;;;;;;26.77;3.10;;;7.30;40.00;;;;;;5051814;28;20411;-46
2023/12/19 00:23:36;;;;;;;5.70;3.40;;;7.30;40.20;;;;;;5051618;28;20678;-51
2023/12/19 00:26:02;;;;;;;1.20;0.90;;;7.30;40.40;;;;;;5051788;28;20414;-47
2023/12/19 00:28:28;;;;;;;4.45;2.05;;;7.40;40.30;;;;;;5051529;28;20446;-47
2023/12/19 00:30:54;;;;;;;1.55;1.35;;;7.40;40.30;;;;;;5051720;28;20183;-52
2023/12/19 00:33:22;;;;;;;2.15;2.05;;;7.40;40.30;;;;;;5051729;28;20176;-48
2023/12/19 00:35:48;;;;;;;1.25;1.15;;;7.50;40.20;;;;;;5051681;28;20185;-48
2023/12/19 00:38:13;;;;;;;1.30;0.93;;;7.50;41.00;;;;;;5051272;28;20347;-51
2023/12/19 00:40:39;;;;;;;4.20;1.58;;;7.60;40.10;;;;;;5051580;28;20412;-48
2023/12/19 00:43:05;;;;;;;3.37;1.90;;;7.70;40.10;;;;;;5051565;28;20204;-53
2023/12/19 00:45:31;;;;;;;2.30;1.80;;;7.80;39.90;;;;;;5051647;28;20898;-55
2023/12/19 00:47:57;;;;;;;3.17;1.13;;;7.80;39.60;;;;;;5051404;28;20545;-49
2023/12/19 00:50:23;;;;;;;1.83;1.43;;;7.90;39.80;;;;;;5051472;28;20415;-51
2023/12/19 00:52:48;;;;;;;1.00;0.70;;;7.90;40.10;;;;;;5051577;28;20416;-53
2023/12/19 00:55:14;;;;;;;2.00;1.37;;;7.80;40.00;;;;;;5051777;28;20407;-46
2023/12/19 00:57:40;;;;;;;2.85;1.52;;;7.80;40.00;;;;;;5051466;28;20461;-46
2023/12/19 01:00:07;;;;;;;2.20;2.00;;;7.90;40.10;;;;;;5051492;28;20605;-51
2023/12/19 01:02:33;;;;;;;2.75;2.42;;;7.80;40.00;;;;;;5051442;28;20817;-48
2023/12/19 01:04:59;;;;;;;3.07;1.17;;;7.90;39.90;;;;;;5055294;28;20173;-48
2023/12/19 01:07:24;;;;;;;2.33;2.13;;;7.90;40.20;;;;;;5055028;28;20435;-52
2023/12/19 01:09:50;;;;;;;3.45;2.67;;;8.00;39.90;;;;;;5055108;28;21003;-54
2023/12/19 01:12:18;;;;;;;2.83;2.63;;;8.00;39.90;;;;;;5055094;28;20189;-49
2023/12/19 01:14:44;;;;;;;1.48;1.38;;;8.10;39.90;;;;;;5055064;28;20417;-52
2023/12/19 01:17:10;;;;;;;4.32;2.90;;;8.10;39.40;;;;;;5054967;28;20173;-50
2023/12/19 01:19:37;;;;;;;3.05;2.45;;;8.20;39.30;;;;;;5054913;28;20244;-48
2023/12/19 01:22:03;;;;;;;7.82;2.15;;;8.20;39.20;;;;;;5054935;28;20198;-46
2023/12/19 01:24:29;;;;;;;4.20;3.10;;;8.20;39.10;;;;;;5055113;28;20193;-51
2023/12/19 01:26:55;;;;;;;3.08;2.53;;;8.30;39.10;;;;;;5054739;28;20162;-47
2023/12/19 01:29:22;;;;;;;4.82;1.80;;;8.40;38.90;;;;;;5054780;28;20271;-49
2023/12/19 01:31:48;;;;;;;2.20;1.10;;;8.40;39.00;;;;;;5054737;28;20539;-52
2023/12/19 01:34:14;;;;;;;3.22;1.25;;;8.40;38.90;;;;;;5054718;28;20161;-48
2023/12/19 01:36:41;;;;;;;5.57;1.30;;;8.50;38.90;;;;;;5054782;28;20181;-47
2023/12/19 01:39:10;;;;;;;1.42;1.33;;;8.50;38.80;;;;;;5054345;28;20452;-50
2023/12/19 01:41:36;;;;;;;1.85;1.35;;;8.50;39.00;;;;;;5054517;28;20172;-53
2023/12/19 01:44:02;;;;;;;1.00;0.77;;;8.40;38.80;;;;;;5054532;28;20299;-47
2023/12/19 01:46:28;;;;;;;2.75;2.55;;;8.40;38.90;;;;;;5054534;28;20421;-48
2023/12/19 01:48:54;;;;;;;1.17;0.90;;;8.40;39.00;;;;;;5054138;28;20197;-50
2023/12/19 01:51:20;;;;;;;2.30;0.63;;;8.40;38.90;;;;;;5054372;28;20461;-47
2023/12/19 01:53:48;;;;;;;1.00;0.70;;;8.40;38.80;;;;;;5054388;28;20177;-49
2023/12/19 01:56:17;;;;;;;7.35;3.15;;;8.30;39.50;;;;;;5054517;28;20173;-50
2023/12/19 01:58:44;;;;;;;1.40;1.17;;;8.30;39.00;;;;;;5054168;28;20204;-48
2023/12/19 02:01:12;;;;;;;3.75;1.20;;;8.20;39.10;;;;;;5054243;28;20219;-47
2023/12/19 02:03:39;;;;;;;4.72;1.60;;;8.10;39.00;;;;;;5054043;28;20600;-49
2023/12/19 02:06:06;;;;;;;1.80;0.85;;;8.10;39.10;;;;;;5054353;28;20176;-54
2023/12/19 02:08:33;;;;;;;1.70;1.10;;;8.10;39.20;;;;;;5053882;28;20189;-47
2023/12/19 02:10:59;;;;;;;4.25;2.42;;;8.00;39.30;;;;;;5054066;28;20176;-47
2023/12/19 02:13:25;;;;;;;1.83;1.30;;;8.00;39.30;;;;;;5053923;28;20177;-56
2023/12/19 02:15:51;;;;;;;1.37;1.00;;;8.00;39.20;;;;;;5052812;28;20420;-55
2023/12/19 02:18:19;;;;;;;3.45;1.92;;;7.90;39.20;;;;;;5053646;28;20944;-55
2023/12/19 02:20:45;;;;;;;3.78;1.70;;;7.80;39.30;;;;;;5053896;28;20172;-54
2023/12/19 02:23:15;;;;;;;3.15;2.85;;;7.80;39.40;;;;;;5053805;28;20205;-47
2023/12/19 02:25:41;;;;;;;3.05;2.13;;;7.80;39.20;;;;;;5053825;28;20168;-50
2023/12/19 02:28:08;;;;;;;2.95;1.45;;;7.70;39.40;;;;;;5053499;28;20208;-52
2023/12/19 02:30:37;;;;;;;4.05;2.17;;;7.60;39.50;;;;;;5053540;28;20176;-49
2023/12/19 02:33:04;;;;;;;5.15;1.67;;;7.60;39.50;;;;;;5053616;28;20184;-47
2023/12/19 02:35:30;;;;;;;2.40;2.20;;;7.50;39.60;;;;;;5053615;28;20273;-53
2023/12/19 02:37:56;;;;;;;2.42;2.22;;;7.50;39.80;;;;;;5053347;28;20209;-49
2023/12/19 02:40:23;;;;;;;1.10;1.00;;;7.40;39.70;;;;;;5053504;28;20169;-48
2023/12/19 02:42:49;;;;;;;1.30;1.20;;;7.40;39.70;;;;;;5053388;28;20199;-50
2023/12/19 02:45:15;;;;;;;1.27;1.17;;;7.30;39.90;;;;;;5053336;28;20258;-51
2023/12/19 02:47:41;;;;;;;2.20;1.52;;;7.30;39.80;;;;;;5053478;28;20400;-49
2023/12/19 02:50:08;;;;;;;0.90;0.70;;;7.40;39.80;;;;;;5053413;28;20224;-49
2023/12/19 02:52:33;;;;;;;3.07;1.77;;;7.30;39.60;;;;;;5053175;28;20407;-50
2023/12/19 02:54:59;;;;;;;1.60;1.40;;;7.30;39.70;;;;;;5053230;28;20415;-49
2023/12/19 02:57:25;;;;;;;2.23;1.90;;;7.30;39.80;;;;;;5053089;28;20417;-48
2023/12/19 02:59:51;;;;;;;2.73;2.23;;;7.30;39.60;;;;;;5052963;28;20428;-53
2023/12/19 03:02:17;;;;;;;2.13;1.93;;;7.30;39.80;;;;;;5052983;28;20453;-50
2023/12/19 03:04:43;;;;;;;1.27;1.17;;;7.20;40.00;;;;;;5053083;28;20458;-51
2023/12/19 03:07:09;;;;;;;1.10;0.63;;;7.20;40.00;;;;;;5052862;28;20404;-52
2023/12/19 03:09:35;;;;;;;1.92;1.65;;;7.20;40.00;;;;;;5052878;28;20451;-46
2023/12/19 03:12:06;;;;;;;2.33;1.20;;;7.20;40.00;;;;;;5052845;28;20184;-52
2023/12/19 03:14:33;;;;;;;1.27;1.17;;;7.20;39.80;;;;;;5052774;28;20170;-54
2023/12/19 03:17:04;;;;;;;1.00;0.88;;;7.20;39.90;;;;;;5052717;28;20764;-46
2023/12/19 03:19:30;;;;;;;3.60;2.53;;;7.20;39.90;;;;;;5052870;28;20284;-50
2023/12/19 03:21:56;;;;;;;3.88;1.17;;;7.20;39.90;;;;;;5052556;28;20177;-49
2023/12/19 03:24:23;;;;;;;1.23;1.13;;;7.10;39.80;;;;;;5052735;28;20172;-45
2023/12/19 03:26:49;;;;;;;1.10;1.00;;;7.10;40.40;;;;;;5052077;28;20573;-50
2023/12/19 03:29:15;;;;;;;0.98;0.60;;;7.00;39.70;;;;;;5052581;28;20191;-55
2023/12/19 03:31:42;;;;;;;4.03;1.90;;;7.00;39.80;;;;;;5052654;28;20257;-49
2023/12/19 03:34:08;;;;;;;2.00;1.60;;;7.00;40.30;;;;;;5052453;28;20466;-53
2023/12/19 03:36:34;;;;;;;1.00;0.90;;;5.70;40.00;;;;;;5052609;28;20200;-53
2023/12/19 03:39:00;;;;;;;1.73;1.63;;;6.90;40.50;;;;;;5052166;28;20683;-47
2023/12/19 03:41:26;;;;;;;2.65;1.85;;;6.90;40.80;;;;;;5052419;28;20976;-50
2023/12/19 03:43:52;;;;;;;1.20;0.90;;;6.90;41.00;;;;;;5052295;28;20302;-49
2023/12/19 03:46:18;;;;;;;1.37;1.03;;;6.90;40.90;;;;;;5052384;28;20467;-48
2023/12/19 03:48:46;;;;;;;4.03;2.92;;;7.00;40.80;;;;;;5052089;28;20428;-49
2023/12/19 03:51:13;;;;;;;1.20;0.90;;;7.10;40.80;;;;;;5052290;28;20173;-53
2023/12/19 03:53:39;;;;;;;2.45;1.90;;;7.10;40.80;;;;;;5052172;28;20239;-48
2023/12/19 03:56:06;;;;;;;3.37;2.97;;;7.10;40.80;;;;;;5052015;28;20635;-46
2023/12/19 03:58:32;;;;;;;6.40;3.40;;;7.10;41.10;;;;;;5034011;28;20979;-52
2023/12/19 04:01:00;;;;;;;6.43;2.05;;;7.10;40.90;;;;;;5052105;28;20185;-53
2023/12/19 04:03:26;;;;;;;4.32;2.67;;;7.10;40.80;;;;;;5052061;28;20205;-48
2023/12/19 04:05:52;;;;;;;1.13;1.03;;;7.20;40.70;;;;;;5052045;28;20200;-51
2023/12/19 04:08:18;;;;;;;2.40;1.43;;;7.20;40.70;;;;;;5051709;28;20423;-52
2023/12/19 04:10:44;;;;;;;1.00;0.90;;;7.20;40.50;;;;;;5051870;28;20407;-49
2023/12/19 04:13:09;;;;;;;2.30;1.77;;;7.20;40.40;;;;;;5051951;28;20419;-49
2023/12/19 04:15:35;;;;;;;3.37;1.90;;;7.30;40.50;;;;;;5052147;28;20406;-51
2023/12/19 04:18:01;;;;;;;1.20;1.07;;;7.20;40.80;;;;;;5051724;28;20404;-50
2023/12/19 04:20:27;;;;;;;5.70;2.43;;;7.30;40.80;;;;;;5051779;28;20177;-48
2023/12/19 04:22:53;;;;;;;2.57;2.37;;;7.30;40.60;;;;;;5051720;28;20530;-50
2023/12/19 04:25:19;;;;;;;2.67;2.47;;;7.40;40.90;;;;;;5051727;28;20499;-48
2023/12/19 04:27:45;;;;;;;10.10;2.50;;;7.40;40.70;;;;;;5051576;28;20175;-47
2023/12/19 04:30:11;;;;;;;1.40;1.03;;;7.50;40.90;;;;;;5051780;28;20430;-51
2023/12/19 04:32:36;;;;;;;1.52;1.42;;;7.50;40.80;;;;;;5051566;28;20946;-48
2023/12/19 04:35:03;;;;;;;2.13;1.50;;;7.50;40.60;;;;;;5051737;28;20205;-54
2023/12/19 04:37:29;;;;;;;1.27;1.17;;;7.50;40.60;;;;;;5051473;28;20495;-47
2023/12/19 04:39:57;;;;;;;1.33;1.23;;;7.60;40.60;;;;;;5055637;28;20700;-54
2023/12/19 04:42:23;;;;;;;2.25;1.90;;;7.70;40.70;;;;;;5055786;28;20448;-49
2023/12/19 04:44:49;;;;;;;1.60;1.23;;;7.70;40.60;;;;;;5055673;28;20176;-47
2023/12/19 04:47:15;;;;;;;4.03;1.13;;;7.70;40.60;;;;;;5055459;28;20176;-54
2023/12/19 04:49:41;;;;;;;0.93;0.65;;;7.80;40.50;;;;;;5055636;28;20427;-53
2023/12/19 04:52:06;;;;;;;2.33;2.20;;;7.80;40.60;;;;;;5055418;28;20177;-47
2023/12/19 04:54:32;;;;;;;1.63;1.53;;;7.90;40.60;;;;;;5055422;28;20411;-56
2023/12/19 04:56:58;;;;;;;3.00;2.28;;;7.80;40.30;;;;;;5055226;28;20423;-51
2023/12/19 04:59:24;;;;;;;2.40;2.20;;;7.90;40.60;;;;;;5055296;28;20193;-46
2023/12/19 05:01:50;;;;;;;1.85;1.73;;;7.80;40.60;;;;;;5055238;28;20415;-52
2023/12/19 05:04:17;;;;;;;1.48;1.20;;;7.80;40.60;;;;;;5055494;28;20201;-47
2023/12/19 05:06:43;;;;;;;1.25;1.08;;;7.80;40.60;;;;;;5055360;28;20173;-51
2023/12/19 05:09:09;;;;;;;2.97;1.10;;;7.90;40.60;;;;;;5055328;28;20201;-50
2023/12/19 05:11:35;;;;;;;1.10;0.97;;;7.90;40.60;;;;;;5055299;28;20419;-48
2023/12/19 05:14:01;;;;;;;1.33;0.90;;;7.90;41.00;;;;;;5055164;28;20408;-54
2023/12/19 05:16:27;;;;;;;1.00;0.80;;;7.90;40.70;;;;;;5055110;28;20181;-54
2023/12/19 05:18:53;;;;;;;4.18;2.05;;;7.80;40.80;;;;;;5054813;28;20675;-47
2023/12/19 05:21:22;;;;;;;2.45;2.25;;;7.80;40.70;;;;;;5054821;28;20223;-51
2023/12/19 05:23:48;;;;;;;1.45;1.35;;;7.80;40.70;;;;;;5054933;28;20204;-52
2023/12/19 05:26:14;;;;;;;1.50;1.40;;;7.90;40.90;;;;;;5055035;28;20526;-49
2023/12/19 05:28:40;;;;;;;1.17;0.90;;;7.80;40.60;;;;;;5054697;28;20485;-47
2023/12/19 05:31:10;;;;;;;1.20;1.10;;;7.90;40.60;;;;;;5054883;28;20408;-49
2023/12/19 05:33:36;;;;;;;1.65;1.17;;;7.80;40.60;;;;;;5054867;28;20207;-52
2023/12/19 05:36:02;;;;;;;2.33;1.40;;;7.90;40.50;;;;;;5054673;28;20173;-54
2023/12/19 05:38:32;;;;;;;1.63;1.48;;;7.90;40.30;;;;;;5054387;28;20672;-46
2023/12/19 05:40:58;;;;;;;1.48;1.35;;;7.90;40.30;;;;;;5054657;28;20647;-48
2023/12/19 05:43:24;;;;;;;4.68;3.33;;;7.90;40.20;;;;;;5054456;28;20209;-52
2023/12/19 05:45:50;;;;;;;2.00;1.63;;;7.90;40.20;;;;;;5054570;28;20263;-55
2023/12/19 05:48:17;;;;;;;4.30;2.38;;;7.90;40.10;;;;;;5054323;28;20203;-46
2023/12/19 05:50:42;;;;;;;3.20;0.95;;;8.00;40.00;;;;;;5054291;28;20170;-54
2023/12/19 05:53:09;;;;;;;1.70;0.97;;;8.00;40.00;;;;;;5054555;28;20185;-49
2023/12/19 05:55:35;;;;;;;1.50;1.20;;;8.10;39.90;;;;;;5054309;28;20990;-54
2023/12/19 05:58:01;;;;;;;1.10;0.83;;;8.00;39.80;;;;;;5054280;28;20209;-47
2023/12/19 06:00:27;;;;;;;1.03;0.90;;;8.00;39.70;;;;;;5054313;28;20740;-49
2023/12/19 06:02:53;;;;;;;9.73;4.47;;;8.00;39.70;;;;;;5054110;28;20944;-53
2023/12/19 06:05:19;;;;;;;2.50;2.20;;;8.00;39.70;;;;;;5054187;28;20415;-49
2023/12/19 06:07:45;;;;;;;2.55;1.70;;;8.00;39.70;;;;;;5053967;28;20487;-49
2023/12/19 06:10:12;;;;;;;3.37;1.60;;;8.00;39.70;;;;;;5054024;28;20284;-53
2023/12/19 06:12:39;;;;;;;4.43;2.65;;;8.00;39.80;;;;;;5054065;28;20438;-49
2023/12/19 06:15:08;;;;;;;2.92;1.95;;;8.00;39.80;;;;;;5053963;28;20180;-46
2023/12/19 06:17:52;;;;;;;2.75;2.55;;;7.90;39.90;;;;;;5053666;28;20178;-53
2023/12/19 06:20:18;;;;;;;1.67;1.10;;;7.90;39.90;;;;;;5053994;28;20710;-45
2023/12/19 06:22:44;;;;;;;1.93;1.37;;;7.90;39.90;;;;;;5053934;28;20284;-47
2023/12/19 06:25:10;;;;;;;0.90;0.60;;;8.00;39.90;;;;;;5053780;28;20770;-53
2023/12/19 06:27:36;;;;;;;3.28;1.33;;;8.00;39.70;;;;;;5053717;28;20928;-52
2023/12/19 06:30:04;;;;;;;9.88;1.65;;;8.00;39.90;;;;;;5053636;28;20243;-52
2023/12/19 06:32:31;;;;;;;4.82;1.70;;;8.00;39.80;;;;;;5053612;28;20180;-50
2023/12/19 06:34:57;;;;;;;4.10;3.70;;;8.10;39.80;;;;;;5053853;28;20200;-50
2023/12/19 06:37:23;;;;;;;7.10;2.63;;;8.10;39.70;;;;;;5053383;28;20169;-46
2023/12/19 06:39:49;;;;;;;3.63;2.73;;;8.10;39.80;;;;;;5053413;28;20586;-51
2023/12/19 06:42:15;;;;;;;6.40;3.70;;;8.10;39.90;;;;;;5053363;28;20455;-50
2023/12/19 06:44:41;;;;;;;4.53;2.83;;;8.10;39.90;;;;;;5053324;28;20410;-52
2023/12/19 06:47:07;;;;;;;1.90;1.80;;;8.10;39.80;;;;;;5053331;28;20412;-55
2023/12/19 06:49:32;;;;;;;1.37;1.10;;;8.20;39.90;;;;;;5053338;28;20417;-54
2023/12/19 06:51:58;;;;;;;1.23;0.90;;;8.20;39.80;;;;;;5053274;28;20458;-46
2023/12/19 06:54:24;;;;;;;5.40;2.10;;;8.30;39.70;;;;;;5053313;28;20419;-53
2023/12/19 06:56:51;;;;;;;2.50;2.17;;;8.40;39.50;;;;;;5053156;28;20746;-52
2023/12/19 06:59:17;;;;;;;1.30;1.10;;;8.40;39.50;;;;;;5053077;28;20189;-48
2023/12/19 07:01:44;;;;;;;2.00;1.10;;;8.50;39.80;;;;;;5052710;28;20173;-47
2023/12/19 07:04:10;;;;;;;3.45;3.15;;;8.50;39.60;;;;;;5052962;28;20455;-54
2023/12/19 07:06:36;;;;;;;1.45;1.23;;;8.50;39.50;;;;;;5053092;28;20672;-54
2023/12/19 07:09:02;;;;;;;2.17;1.27;;;8.50;39.10;;;;;;5052708;28;20196;-48
2023/12/19 07:11:28;;;;;;;2.63;1.97;;;8.50;39.30;;;;;;5052877;28;20176;-47
2023/12/19 07:13:54;;;;;;;1.70;1.60;;;8.50;39.20;;;;;;5052836;28;20408;-54
2023/12/19 07:16:21;;;;;;;3.20;1.80;;;8.50;39.20;;;;;;5052930;28;20462;-49
2023/12/19 07:18:47;;;;;;;5.20;1.40;;;8.50;39.20;;;;;;5052777;28;20432;-46
2023/12/19 07:21:23;;;;;;;1.60;1.40;;;8.50;39.30;;;;;;5052747;28;20188;-52
2023/12/19 07:23:51;;;;;;;2.40;2.20;;;8.50;39.30;;;;;;5052628;28;20227;-49
2023/12/19 07:26:26;;;;;;;2.08;0.70;;;8.50;39.50;;;;;;5052668;28;20229;-55
2023/12/19 07:28:57;;;;;;;0.90;0.57;;;8.50;39.40;;;;;;5052759;28;20560;-47
2023/12/19 07:31:27;;;;;;;1.27;1.17;;;8.40;39.40;;;;;;5052832;28;20530;-54
2023/12/19 07:33:58;;;;;;;1.52;1.30;;;8.50;39.50;;;;;;5052615;28;20207;-48
2023/12/19 07:36:25;;;;;;;2.15;1.90;;;8.50;39.60;;;;;;5052496;28;20173;-47
2023/12/19 07:38:52;;;;;;;4.22;1.50;;;8.60;39.50;;;;;;5052103;28;20296;-55
2023/12/19 07:41:18;;;;;;;4.43;0.80;;;8.60;39.30;;;;;;5052655;28;20173;-46
2023/12/19 07:43:44;;;;;;;2.22;1.02;;;8.60;39.30;;;;;;5052433;28;20213;-53
2023/12/19 07:46:11;;;;;;;2.85;1.92;;;8.70;39.30;;;;;;5052485;28;20169;-53
2023/12/19 07:48:37;;;;;;;18.92;4.70;;;8.70;39.30;;;;;;5052221;28;20200;-47
2023/12/19 07:51:03;;;;;;;4.25;2.50;;;8.80;39.10;;;;;;5052207;28;20170;-49
2023/12/19 07:53:32;;;;;;;2.65;1.80;;;8.80;39.20;;;;;;5052111;28;20182;-55
2023/12/19 07:56:03;;;;;;;1.98;1.88;;;8.90;39.30;;;;;;5052379;28;20177;-49
2023/12/19 07:58:30;;;;;;;2.17;2.08;;;8.90;39.10;;;;;;5052068;28;20614;-46
2023/12/19 08:00:56;;;;;;;1.92;1.83;;;9.00;38.80;;;;;;5052130;28;20173;-53
2023/12/19 08:03:29;;;;;;;1.92;1.80;;;9.00;38.70;;;;;;5052029;28;20204;-54
2023/12/19 08:05:56;;;;;;;3.38;2.17;;;9.00;38.90;;;;;;5051975;28;20169;-48
2023/12/19 08:08:25;;;;;;;3.10;2.90;;;9.10;39.10;;;;;;5052000;28;20618;-50
2023/12/19 08:10:52;;;;;;;1.95;1.80;;;9.20;38.90;;;;;;5051958;28;20230;-53
2023/12/19 08:13:22;;;;;;;2.10;1.48;;;9.30;38.60;;;;;;5050963;28;20208;-46
2023/12/19 08:15:49;;;;;;;1.95;1.30;;;9.30;38.20;;;;;;5052024;28;20272;-53
2023/12/19 08:18:16;;;;;;;2.17;1.98;;;9.40;38.40;;;;;;5051652;28;20196;-54
2023/12/19 08:20:42;;;;;;;2.67;1.90;;;9.50;38.60;;;;;;5051669;28;20187;-47
2023/12/19 08:23:09;;;;;;;2.60;1.50;;;9.70;37.80;;;;;;5051782;28;20200;-54
2023/12/19 08:25:35;;;;;;;3.50;1.58;;;9.80;37.00;;;;;;5051946;28;20227;-49
2023/12/19 08:28:04;;;;;;;1.30;1.00;;;9.90;37.20;;;;;;5051714;28;20173;-50
2023/12/19 08:30:30;;;;;;;6.13;2.45;;;10.00;36.50;;;;;;5051764;28;20874;-48
2023/12/19 08:32:59;;;;;;;3.85;3.05;;;9.90;36.90;;;;;;5051636;28;20720;-46
2023/12/19 08:35:25;;;;;;;1.52;0.90;;;10.00;36.80;;;;;;5051609;28;20176;-56
2023/12/19 08:37:52;;;;;;;2.10;1.60;;;9.90;36.30;;;;;;5051421;28;20187;-48
2023/12/19 08:40:21;;;;;;;1.50;1.00;;;9.90;36.90;;;;;;5051763;28;20543;-48
2023/12/19 08:42:50;;;;;;;3.13;2.30;;;9.90;36.20;;;;;;5051503;28;20567;-54
2023/12/19 08:45:19;;;;;;;5.78;2.50;;;9.90;36.80;;;;;;5051735;28;20169;-48
2023/12/19 08:47:46;;;;;;;2.42;1.92;;;10.00;36.90;;;;;;5051402;28;20256;-50
2023/12/19 08:50:13;;;;;;;2.08;1.52;;;10.00;37.00;;;;;;5051514;28;20658;-56
2023/12/19 08:52:40;;;;;;;2.80;2.00;;;10.10;36.20;;;;;;5051530;28;20180;-47
2023/12/19 08:55:07;;;;;;;5.07;2.97;;;10.10;36.60;;;;;;5051721;28;20542;-49
2023/12/19 08:57:45;;;;;;;1.67;1.23;;;10.20;36.90;;;;;;5051476;28;20188;-53
2023/12/19 09:00:13;;;;;;;2.65;2.45;;;10.40;36.10;;;;;;5051409;28;20251;-48
2023/12/19 09:02:46;;;;;;;2.95;2.70;;;10.50;36.50;;;;;;5051312;28;20213;-49
2023/12/19 09:05:21;;;;;;;4.32;2.40;;;10.60;36.50;;;;;;5051568;28;20264;-55
2023/12/19 09:07:47;;;;;;;0.93;0.60;;;10.70;36.20;;;;;;5051318;28;20181;-48
2023/12/19 09:10:14;;;;;;;1.97;1.77;;;10.70;35.80;;;;;;5051390;28;20717;-47
2023/12/19 09:12:40;;;;;;;4.28;2.05;;;10.60;36.00;;;;;;5051161;28;20466;-54
2023/12/19 09:15:07;;;;;;;6.78;2.00;;;10.70;36.00;;;;;;5051608;28;20181;-49
2023/12/19 09:17:33;;;;;;;7.28;1.88;;;10.70;35.60;;;;;;5051167;28;20235;-48
2023/12/19 09:19:59;;;;;;;3.25;2.40;;;10.70;35.30;;;;;;5051404;28;20294;-53
2023/12/19 09:22:26;;;;;;;1.83;1.10;;;10.70;35.80;;;;;;5051077;28;20201;-47
2023/12/19 09:24:52;;;;;;;1.50;1.30;;;10.80;34.90;;;;;;5053435;28;20173;-45
2023/12/19 09:27:18;;;;;;;2.35;2.15;;;10.80;34.90;;;;;;5054703;28;20170;-52
2023/12/19 09:29:44;;;;;;;2.97;2.40;;;10.70;35.50;;;;;;5054891;28;20731;-48
2023/12/19 09:32:11;;;;;;;7.80;3.58;;;10.80;35.60;;;;;;5054996;28;20400;-46
2023/12/19 09:34:38;;;;;;;3.05;1.50;;;10.80;35.80;;;;;;5054943;28;20188;-48
2023/12/19 09:37:04;;;;;;;3.95;2.28;;;10.90;35.50;;;;;;5054732;28;20223;-52
2023/12/19 09:39:30;;;;;;;1.55;0.80;;;10.90;35.80;;;;;;5054607;28;20575;-47
2023/12/19 09:41:56;;;;;;;1.90;1.40;;;11.00;35.30;;;;;;5054568;28;20170;-48
2023/12/19 09:44:23;;;;;;;2.15;1.75;;;11.10;35.00;;;;;;5054554;28;20404;-52
2023/12/19 09:46:52;;;;;;;1.73;1.60;;;11.20;35.10;;;;;;5054401;28;20177;-50
2023/12/19 09:49:25;;;;;;;3.88;2.88;;;11.30;34.90;;;;;;5054458;28;20192;-47
2023/12/19 09:51:52;;;;;;;5.20;3.17;;;11.40;34.60;;;;;;5054380;28;20181;-56
2023/12/19 09:54:22;;;;;;;8.00;2.58;;;11.50;34.70;;;;;;5054401;28;20185;-46
2023/12/19 09:56:56;;;;;;;6.50;2.42;;;11.50;34.40;;;;;;5054529;28;20663;-54
2023/12/19 09:59:22;;;;;;;4.00;3.28;;;11.60;35.40;;;;;;5054424;28;20196;-47
2023/12/19 10:01:48;;;;;;;5.60;2.40;;;11.70;34.40;;;;;;5054210;28;20535;-49
2023/12/19 10:04:14;;;;;;;1.35;1.00;;;11.80;33.80;;;;;;5054120;28;20530;-47
2023/12/19 10:06:58;;;;;;;3.13;2.27;;;11.90;34.80;;;;;;5054153;28;20265;-47
2023/12/19 10:09:25;;;;;;;2.88;2.13;;;12.00;34.40;;;;;;5054229;28;20507;-47
2023/12/19 10:12:11;;;;;;;2.10;1.73;;;12.00;34.10;;;;;;5054057;28;20201;-54
2023/12/19 10:14:37;;;;;;;3.70;1.45;;;12.10;33.60;;;;;;5054170;28;20543;-48
2023/12/19 10:17:04;;;;;;;2.80;2.60;;;12.10;34.00;;;;;;5053862;28;20169;-50
2023/12/19 10:19:30;;;;;;;1.70;1.60;;;12.10;33.80;;;;;;5053799;28;20194;-53
2023/12/19 10:22:07;;;;;;;7.18;2.28;;;12.00;33.80;;;;;;5053877;28;20662;-49
2023/12/19 10:24:33;;;;;;;3.67;2.28;;;12.00;33.90;;;;;;5053952;28;20177;-55
2023/12/19 10:27:03;;;;;;;5.38;2.72;;;11.90;34.20;;;;;;5053683;28;20266;-47
2023/12/19 10:29:36;;;;;;;3.15;1.98;;;11.90;33.30;;;;;;5053745;28;20200;-47
2023/12/19 10:32:22;;;;;;;2.10;1.42;;;11.90;34.10;;;;;;5053627;28;20708;-55
2023/12/19 10:34:56;;;;;;;3.40;2.65;;;11.90;34.40;;;;;;5053459;28;20195;-52
2023/12/19 10:37:26;;;;;;;5.38;2.42;;;11.90;34.50;;;;;;5052795;28;20509;-51
2023/12/19 10:40:10;;;;;;;4.60;3.20;;;11.90;34.50;;;;;;5053524;28;20582;-49
2023/12/19 10:42:36;;;;;;;1.98;1.73;;;12.00;34.70;;;;;;5053669;28;20197;-54
2023/12/19 10:45:06;;;;;;;2.28;1.77;;;12.00;34.50;;;;;;5053549;28;20197;-48
2023/12/19 10:47:32;;;;;;;2.08;1.52;;;12.00;34.40;;;;;;5053376;28;20192;-49
2023/12/19 10:49:58;;;;;;;7.07;5.13;;;12.00;34.60;;;;;;5053381;28;20212;-51
2023/12/19 10:52:28;;;;;;;2.75;1.40;;;12.10;34.20;;;;;;5053325;28;20220;-49
2023/12/19 10:55:06;;;;;;;2.77;2.43;;;12.10;34.50;;;;;;5053280;28;20711;-52
2023/12/19 10:57:35;;;;;;;2.22;2.00;;;12.10;33.20;;;;;;5053145;28;20410;-54
2023/12/19 11:00:13;;;;;;;2.90;2.60;;;12.00;31.40;;;;;;5053103;28;20202;-47
2023/12/19 11:03:18;;;;;;;3.47;2.58;;;12.10;33.00;;;;;;5053027;28;20193;-55
2023/12/19 11:05:46;;;;;;;3.38;2.10;;;12.10;31.50;;;;;;5042153;28;20181;-47
2023/12/19 11:08:17;;;;;;;2.00;1.60;;;12.00;32.10;;;;;;5052879;28;20188;-49
2023/12/19 11:10:59;;;;;;;1.10;0.93;;;12.10;31.70;;;;;;5052999;28;20184;-54
2023/12/19 11:13:26;;;;;;;2.10;1.00;;;12.10;28.90;;;;;;5052930;28;20178;-49
2023/12/19 11:15:58;;;;;;;2.80;0.77;;;12.30;29.90;;;;;;5053154;28;20196;-48
2023/12/19 11:18:34;;;;;;;1.15;0.80;;;12.40;26.60;;;;;;5034879;28;20548;-49
2023/12/19 11:21:07;;;;;;;1.75;0.93;;;12.40;27.00;;;;;;5052832;28;20701;-55
2023/12/19 11:23:53;;;;;;;1.15;0.63;;;12.60;27.50;;;;;;5052691;28;20197;-47
2023/12/19 11:26:29;;;;;;;1.00;0.40;;;12.70;26.20;;;;;;5052308;28;20223;-54
2023/12/19 11:28:55;;;;;;;1.52;0.82;;;12.80;27.80;;;;;;5052481;28;20224;-48
2023/12/19 11:31:32;;;;;;;1.80;1.23;;;12.90;27.90;;;;;;5052600;28;20208;-52
2023/12/19 11:34:21;;;;;;;4.43;2.55;;;13.00;26.30;;;;;;5052589;28;20469;-48
2023/12/19 11:36:59;;;;;;;1.05;0.70;;;13.00;27.30;;;;;;5052563;28;20239;-51
2023/12/19 11:39:30;;;;;;;1.60;1.00;;;13.10;27.10;;;;;;5052346;28;20208;-53
2023/12/19 11:41:57;;;;;;;2.20;1.42;;;13.20;28.20;;;;;;5052356;28;20208;-45
2023/12/19 11:44:33;;;;;;;1.40;1.23;;;13.20;26.20;;;;;;5052425;28;20177;-48
2023/12/19 11:47:19;;;;;;;1.48;1.25;;;13.20;27.60;;;;;;5052131;28;20881;-55
2023/12/19 11:49:45;;;;;;;1.83;1.20;;;13.20;27.30;;;;;;5052311;28;20246;-55
2023/12/19 11:52:33;;;;;;;1.95;0.93;;;13.20;28.00;;;;;;5052192;28;20265;-49
2023/12/19 11:55:02;;;;;;;1.52;0.90;;;13.40;28.80;;;;;;5052083;28;20266;-49
2023/12/19 11:57:28;;;;;;;1.85;1.48;;;13.40;27.80;;;;;;5051853;28;20173;-47
2023/12/19 11:59:54;;;;;;;2.30;2.10;;;13.50;27.80;;;;;;5052245;28;20195;-54
2023/12/19 12:02:33;;;;;;;2.20;2.00;;;13.50;27.30;;;;;;5052068;28;20542;-48
2023/12/19 12:05:08;;;;;;;1.15;0.73;;;13.60;27.80;;;;;;5052082;28;20176;-55
2023/12/19 12:07:38;;;;;;;1.65;1.05;;;13.60;27.60;;;;;;5051852;28;20176;-56
2023/12/19 12:10:06;;;;;;;2.60;1.33;;;13.60;28.00;;;;;;5051923;28;20247;-48
2023/12/19 12:12:35;;;;;;;4.10;1.38;;;13.70;28.30;;;;;;5051788;28;20187;-52
2023/12/19 12:15:08;;;;;;;3.55;1.05;;;13.70;28.90;;;;;;5051886;28;20491;-50
2023/12/19 12:17:35;;;;;;;2.10;1.80;;;13.80;28.90;;;;;;5051787;28;20273;-49
2023/12/19 12:20:02;;;;;;;6.18;1.75;;;13.90;29.00;;;;;;5051830;28;20231;-54
2023/12/19 12:22:28;;;;;;;0.90;0.60;;;14.00;29.30;;;;;;5051598;28;20245;-49
2023/12/19 12:24:54;;;;;;;1.10;0.80;;;14.00;29.80;;;;;;5051800;28;20674;-54
2023/12/19 12:27:20;;;;;;;1.97;1.03;;;14.00;30.00;;;;;;5051697;28;20443;-48
2023/12/19 12:29:46;;;;;;;1.08;0.77;;;14.10;30.40;;;;;;5051787;28;20424;-51
2023/12/19 12:32:12;;;;;;;1.00;0.57;;;14.10;30.50;;;;;;5051758;28;20177;-54
2023/12/19 12:34:38;;;;;;;1.27;0.77;;;14.10;30.60;;;;;;5051646;28;20473;-48
2023/12/19 12:37:05;;;;;;;0.90;0.40;;;14.10;31.10;;;;;;5051775;28;20174;-50
2023/12/19 12:39:32;;;;;;;1.20;0.77;;;14.10;31.00;;;;;;5051556;28;20443;-47
2023/12/19 12:42:05;;;;;;;0.88;0.30;;;14.10;31.60;;;;;;5051632;28;20461;-54
2023/12/19 12:44:31;;;;;;;2.20;0.93;;;14.20;31.30;;;;;;5051507;28;20182;-48
2023/12/19 12:46:57;;;;;;;1.00;0.60;;;14.10;32.20;;;;;;5051509;28;20180;-50
2023/12/19 12:49:23;;;;;;;1.10;0.60;;;14.00;32.10;;;;;;5051462;28;20423;-55
2023/12/19 12:51:55;;;;;;;1.00;0.50;;;14.10;32.30;;;;;;5051620;28;20176;-54
2023/12/19 12:54:22;;;;;;;1.23;1.00;;;14.00;32.60;;;;;;5051545;28;20770;-48
2023/12/19 12:56:48;;;;;;;1.70;0.80;;;14.10;33.00;;;;;;5051538;28;20188;-53